Time;durP1;ratioP1;P1;durP2;ratioP2;P2;SDS_P1;SDS_P2;PMS_P1;PMS_P2;Temp;Humidity;BMP_temperature;BMP_pressure;BME280_temperature;BME280_humidity;BME280_pressure;Samples;Min_cycle;Max_cycle;Signal;HPM_P1;HPM_P2
2023/08/26 00:00:50;;;;;;;1.90;1.00;;;21.50;99.90;;;;;;5117486;27;20485;-56
2023/08/26 00:03:16;;;;;;;2.00;1.00;;;21.40;99.90;;;;;;5135986;27;20418;-56
2023/08/26 00:05:43;;;;;;;1.75;1.10;;;21.30;99.90;;;;;;5132933;27;20485;-53
2023/08/26 00:08:10;;;;;;;1.60;0.93;;;21.40;99.90;;;;;;5156142;27;20420;-50
2023/08/26 00:10:37;;;;;;;2.00;0.90;;;21.20;99.90;;;;;;5140960;27;20506;-55
2023/08/26 00:13:06;;;;;;;2.40;1.00;;;21.00;99.90;;;;;;5135451;28;20499;-53
2023/08/26 00:15:33;;;;;;;1.20;0.90;;;21.00;99.90;;;;;;5129812;28;20896;-49
2023/08/26 00:18:00;;;;;;;2.20;0.90;;;21.10;99.90;;;;;;5136574;28;20426;-52
2023/08/26 00:20:28;;;;;;;1.60;1.00;;;21.20;99.90;;;;;;5126287;28;20438;-51
2023/08/26 00:22:55;;;;;;;1.15;0.80;;;21.10;99.90;;;;;;5114970;28;20489;-55
2023/08/26 00:25:22;;;;;;;1.48;0.90;;;21.10;99.90;;;;;;5125970;28;20426;-56
2023/08/26 00:27:49;;;;;;;1.50;1.00;;;21.00;99.90;;;;;;5133838;28;20410;-56
2023/08/26 00:30:18;;;;;;;1.60;0.90;;;21.10;99.90;;;;;;5117653;28;20444;-54
2023/08/26 00:32:45;;;;;;;2.13;0.90;;;20.90;99.90;;;;;;5113180;28;20527;-49
2023/08/26 00:35:12;;;;;;;2.50;0.90;;;20.80;99.90;;;;;;5124716;28;20427;-53
2023/08/26 00:37:39;;;;;;;1.67;1.00;;;20.80;99.90;;;;;;5137819;27;20475;-54
2023/08/26 00:40:06;;;;;;;1.50;1.00;;;20.60;99.90;;;;;;5133235;27;20434;-56
2023/08/26 00:42:36;;;;;;;1.70;0.90;;;20.40;99.90;;;;;;5139284;27;20833;-52
2023/08/26 00:45:04;;;;;;;1.80;1.00;;;20.50;99.90;;;;;;5122163;27;20420;-54
2023/08/26 00:47:32;;;;;;;2.30;0.88;;;20.50;99.90;;;;;;5119541;28;20538;-48
2023/08/26 00:49:59;;;;;;;1.33;0.87;;;20.40;99.90;;;;;;5135475;27;20495;-54
2023/08/26 00:52:27;;;;;;;1.30;0.90;;;20.40;99.90;;;;;;5139615;27;20422;-50
2023/08/26 00:54:54;;;;;;;1.38;1.00;;;20.40;99.90;;;;;;5132116;27;20423;-53
2023/08/26 00:57:21;;;;;;;1.83;1.00;;;20.40;99.90;;;;;;5138447;27;20479;-52
2023/08/26 00:59:49;;;;;;;1.20;0.80;;;20.40;99.90;;;;;;5117072;28;20481;-51
2023/08/26 01:02:16;;;;;;;1.60;0.80;;;20.50;99.90;;;;;;5116732;28;20423;-52
2023/08/26 01:04:44;;;;;;;1.42;0.80;;;20.60;99.90;;;;;;5119161;27;20431;-54
2023/08/26 01:07:11;;;;;;;1.40;0.73;;;20.80;99.90;;;;;;5115733;28;20443;-56
2023/08/26 01:09:38;;;;;;;1.30;0.70;;;20.80;99.90;;;;;;5134717;27;20426;-50
2023/08/26 01:12:16;;;;;;;1.20;0.70;;;20.80;99.90;;;;;;5132857;27;20507;-53
2023/08/26 01:14:50;;;;;;;1.10;0.70;;;20.60;99.90;;;;;;5118802;28;20424;-52
2023/08/26 01:17:19;;;;;;;1.20;0.80;;;20.50;99.90;;;;;;5120898;27;20493;-50
2023/08/26 01:19:48;;;;;;;1.10;0.70;;;20.40;99.90;;;;;;5139365;27;20422;-51
2023/08/26 01:22:19;;;;;;;1.00;0.80;;;20.30;99.90;;;;;;5132157;27;20428;-54
2023/08/26 01:24:48;;;;;;;1.77;0.80;;;20.30;99.90;;;;;;5118546;28;20440;-53
2023/08/26 01:27:15;;;;;;;1.70;0.80;;;20.20;99.90;;;;;;5124622;27;20439;-49
2023/08/26 01:29:41;;;;;;;1.10;0.70;;;20.10;99.90;;;;;;5138704;27;20422;-52
2023/08/26 01:32:19;;;;;;;1.33;0.80;;;20.00;99.90;;;;;;5133646;27;20427;-53
2023/08/26 01:34:50;;;;;;;1.20;0.70;;;20.00;99.90;;;;;;5139001;27;20422;-50
2023/08/26 01:37:19;;;;;;;1.30;0.80;;;19.80;99.90;;;;;;5121861;27;20493;-51
2023/08/26 01:39:50;;;;;;;1.20;0.70;;;19.70;99.90;;;;;;5117401;28;20420;-50
2023/08/26 01:42:20;;;;;;;0.95;0.70;;;19.70;99.90;;;;;;5131025;27;20425;-50
2023/08/26 01:44:48;;;;;;;1.00;0.60;;;19.70;99.90;;;;;;5139077;27;20418;-51
2023/08/26 01:47:16;;;;;;;1.73;0.70;;;19.60;99.90;;;;;;5131468;27;20481;-54
2023/08/26 01:49:44;;;;;;;1.45;0.70;;;19.70;99.90;;;;;;5137802;27;20440;-56
2023/08/26 01:52:11;;;;;;;2.00;0.70;;;19.70;99.90;;;;;;5121151;27;20428;-53
2023/08/26 01:54:38;;;;;;;1.30;0.80;;;19.70;99.90;;;;;;5118934;27;20413;-50
2023/08/26 01:57:06;;;;;;;1.40;0.60;;;19.60;99.90;;;;;;5117674;28;20423;-54
2023/08/26 01:59:33;;;;;;;1.20;0.70;;;19.60;99.90;;;;;;5117758;28;20419;-53
2023/08/26 02:02:00;;;;;;;1.00;0.60;;;19.50;99.90;;;;;;5117335;28;20493;-52
2023/08/26 02:04:27;;;;;;;1.50;0.60;;;19.40;99.90;;;;;;5118364;27;20426;-53
2023/08/26 02:06:54;;;;;;;1.20;0.70;;;19.40;99.90;;;;;;5117037;28;20489;-50
2023/08/26 02:09:21;;;;;;;1.05;0.60;;;19.40;99.90;;;;;;5120528;27;20784;-53
2023/08/26 02:11:48;;;;;;;0.90;0.60;;;19.40;99.90;;;;;;5117344;28;20783;-49
2023/08/26 02:14:17;;;;;;;1.02;0.70;;;19.40;99.90;;;;;;5118446;27;20428;-52
2023/08/26 02:16:44;;;;;;;1.30;0.70;;;19.40;99.90;;;;;;5137709;27;20479;-51
2023/08/26 02:19:11;;;;;;;2.40;0.60;;;19.40;99.90;;;;;;5132131;27;20435;-52
2023/08/26 02:21:38;;;;;;;1.02;0.70;;;19.50;99.90;;;;;;5116568;28;20416;-50
2023/08/26 02:24:05;;;;;;;1.50;0.60;;;19.50;99.90;;;;;;5120275;27;20843;-52
2023/08/26 02:26:33;;;;;;;1.60;0.60;;;19.50;99.90;;;;;;5116975;28;20439;-54
2023/08/26 02:29:00;;;;;;;1.10;0.60;;;19.50;99.90;;;;;;5121484;27;20491;-51
2023/08/26 02:31:28;;;;;;;1.80;0.70;;;19.40;99.90;;;;;;5136066;27;20426;-53
2023/08/26 02:33:55;;;;;;;0.88;0.70;;;19.50;99.90;;;;;;5127528;27;20436;-51
2023/08/26 02:36:22;;;;;;;1.00;0.70;;;19.50;99.90;;;;;;5114833;28;20473;-49
2023/08/26 02:38:49;;;;;;;0.80;0.60;;;19.50;99.90;;;;;;5120853;27;20434;-52
2023/08/26 02:41:16;;;;;;;1.50;0.70;;;19.60;99.90;;;;;;5137081;27;20418;-53
2023/08/26 02:43:43;;;;;;;1.10;0.80;;;19.50;99.90;;;;;;5126815;27;20493;-52
2023/08/26 02:46:10;;;;;;;1.40;0.60;;;19.50;99.90;;;;;;5115392;28;20553;-50
2023/08/26 02:48:38;;;;;;;1.40;0.80;;;19.50;99.90;;;;;;5119502;27;20485;-54
2023/08/26 02:51:05;;;;;;;1.17;0.70;;;19.50;99.90;;;;;;5116705;28;20412;-50
2023/08/26 02:53:32;;;;;;;1.40;0.70;;;19.50;99.90;;;;;;5123088;27;20430;-49
2023/08/26 02:56:00;;;;;;;1.00;0.73;;;19.50;99.90;;;;;;5137230;27;20445;-49
2023/08/26 02:58:27;;;;;;;0.90;0.70;;;19.60;99.90;;;;;;5123893;27;20424;-48
2023/08/26 03:00:55;;;;;;;1.30;0.70;;;19.60;99.90;;;;;;5116439;28;20435;-50
2023/08/26 03:03:22;;;;;;;1.60;0.70;;;19.60;99.90;;;;;;5115611;28;20416;-51
2023/08/26 03:05:50;;;;;;;1.10;0.60;;;19.50;99.90;;;;;;5117851;28;20861;-52
2023/08/26 03:08:17;;;;;;;1.67;0.70;;;19.50;99.90;;;;;;5125879;27;20434;-48
2023/08/26 03:10:44;;;;;;;1.17;0.60;;;19.60;99.90;;;;;;5137141;27;20487;-49
2023/08/26 03:13:11;;;;;;;1.10;0.60;;;19.50;99.90;;;;;;5130644;27;20461;-47
2023/08/26 03:15:38;;;;;;;1.20;0.60;;;19.60;99.90;;;;;;5136813;27;20818;-48
2023/08/26 03:18:05;;;;;;;1.37;0.60;;;19.60;99.90;;;;;;5116772;27;20717;-52
2023/08/26 03:20:33;;;;;;;1.00;0.60;;;19.60;99.90;;;;;;5115613;28;20427;-51
2023/08/26 03:23:02;;;;;;;1.00;0.70;;;19.50;99.90;;;;;;5127231;27;20438;-49
2023/08/26 03:25:30;;;;;;;1.10;0.70;;;19.50;99.90;;;;;;5132679;27;20709;-50
2023/08/26 03:27:56;;;;;;;1.60;0.70;;;19.50;99.90;;;;;;5114127;27;20432;-53
2023/08/26 03:30:24;;;;;;;0.88;0.60;;;19.50;99.90;;;;;;5113955;28;20520;-51
2023/08/26 03:32:50;;;;;;;1.40;0.70;;;19.50;99.90;;;;;;5128672;27;20434;-49
2023/08/26 03:35:18;;;;;;;1.00;0.60;;;19.50;99.90;;;;;;5134663;27;20423;-51
2023/08/26 03:37:44;;;;;;;1.10;0.70;;;19.40;99.90;;;;;;5116484;27;20477;-50
2023/08/26 03:40:13;;;;;;;1.10;0.70;;;19.40;99.90;;;;;;5115341;28;20420;-48
2023/08/26 03:42:41;;;;;;;2.00;0.70;;;19.40;99.90;;;;;;5131233;27;20426;-53
2023/08/26 03:45:10;;;;;;;1.02;0.70;;;19.40;99.90;;;;;;5136617;27;20415;-51
2023/08/26 03:47:37;;;;;;;1.00;0.70;;;19.50;99.90;;;;;;5115657;28;20436;-53
2023/08/26 03:50:04;;;;;;;1.70;0.70;;;19.60;99.90;;;;;;5116326;28;20424;-53
2023/08/26 03:52:31;;;;;;;1.42;0.70;;;19.70;99.90;;;;;;5116295;27;20428;-50
2023/08/26 03:54:58;;;;;;;1.20;0.70;;;19.60;99.90;;;;;;5114962;28;20427;-53
2023/08/26 03:57:27;;;;;;;1.05;0.70;;;19.70;99.90;;;;;;5132357;27;20414;-50
2023/08/26 03:59:53;;;;;;;2.30;0.70;;;19.60;99.90;;;;;;5134335;27;20483;-51
2023/08/26 04:02:20;;;;;;;1.20;0.80;;;19.50;99.90;;;;;;5133116;27;20430;-48
2023/08/26 04:04:47;;;;;;;1.25;0.70;;;19.50;99.90;;;;;;5133176;27;20801;-53
2023/08/26 04:07:14;;;;;;;1.80;0.80;;;19.50;99.90;;;;;;5114911;28;20770;-50
2023/08/26 04:09:42;;;;;;;1.00;0.70;;;19.40;99.90;;;;;;5116967;28;20424;-51
2023/08/26 04:12:09;;;;;;;1.02;0.70;;;19.50;99.90;;;;;;5114770;28;20413;-54
2023/08/26 04:14:38;;;;;;;1.52;0.80;;;19.60;99.90;;;;;;5116661;28;20746;-52
2023/08/26 04:17:05;;;;;;;1.20;0.70;;;19.60;99.90;;;;;;5135934;28;20422;-52
2023/08/26 04:19:32;;;;;;;1.38;0.70;;;19.70;99.90;;;;;;5131276;28;20495;-53
2023/08/26 04:22:00;;;;;;;0.90;0.60;;;19.70;99.90;;;;;;5115398;28;20481;-52
2023/08/26 04:24:27;;;;;;;2.10;0.70;;;19.70;99.90;;;;;;5119203;28;20423;-51
2023/08/26 04:26:54;;;;;;;1.63;0.77;;;19.70;99.90;;;;;;5136043;28;20543;-51
2023/08/26 04:29:21;;;;;;;1.17;0.70;;;19.70;99.90;;;;;;5124541;28;20484;-49
2023/08/26 04:31:49;;;;;;;1.30;0.65;;;19.70;99.90;;;;;;5114997;28;20437;-47
2023/08/26 04:34:16;;;;;;;1.55;0.60;;;19.80;99.90;;;;;;5116220;28;20432;-52
2023/08/26 04:36:43;;;;;;;2.00;0.80;;;19.80;99.90;;;;;;5114828;28;20511;-52
2023/08/26 04:39:11;;;;;;;2.05;0.70;;;19.80;99.90;;;;;;5113440;28;20497;-51
2023/08/26 04:41:39;;;;;;;1.80;0.80;;;19.90;99.90;;;;;;5115317;28;20515;-48
2023/08/26 04:44:07;;;;;;;1.70;0.80;;;19.80;99.90;;;;;;5123660;28;20431;-50
2023/08/26 04:46:34;;;;;;;1.50;0.70;;;19.80;99.90;;;;;;5134950;28;20571;-49
2023/08/26 04:49:03;;;;;;;1.50;0.80;;;20.00;99.90;;;;;;5129126;28;20430;-48
2023/08/26 04:51:30;;;;;;;1.40;0.80;;;20.00;99.90;;;;;;5135418;28;20425;-46
2023/08/26 04:53:57;;;;;;;1.90;0.73;;;20.00;99.90;;;;;;5122784;28;20427;-47
2023/08/26 04:56:24;;;;;;;1.77;0.80;;;19.90;99.90;;;;;;5114224;28;20842;-48
2023/08/26 04:58:51;;;;;;;2.78;0.80;;;19.90;99.90;;;;;;5127866;28;20497;-47
2023/08/26 05:01:18;;;;;;;1.48;0.80;;;19.90;99.90;;;;;;5135137;28;20483;-49
2023/08/26 05:03:45;;;;;;;2.08;0.80;;;19.90;99.90;;;;;;5120223;28;20427;-51
2023/08/26 05:06:13;;;;;;;1.70;0.80;;;19.90;99.90;;;;;;5114607;28;20532;-52
2023/08/26 05:08:40;;;;;;;1.30;0.70;;;20.00;99.90;;;;;;5126836;28;20725;-51
2023/08/26 05:11:07;;;;;;;1.30;0.80;;;20.10;99.90;;;;;;5134017;28;20475;-51
2023/08/26 05:13:35;;;;;;;2.33;0.90;;;20.00;99.90;;;;;;5115329;28;20428;-48
2023/08/26 05:16:02;;;;;;;1.40;0.80;;;20.00;99.90;;;;;;5114169;28;20424;-49
2023/08/26 05:18:29;;;;;;;1.60;0.80;;;19.90;99.90;;;;;;5118551;28;20413;-53
2023/08/26 05:20:56;;;;;;;1.58;0.80;;;19.90;99.90;;;;;;5114054;28;20858;-50
2023/08/26 05:23:24;;;;;;;1.80;0.80;;;19.90;99.90;;;;;;5132844;27;20434;-53
2023/08/26 05:25:51;;;;;;;1.17;0.80;;;20.00;99.90;;;;;;5136635;27;20837;-50
2023/08/26 05:28:18;;;;;;;1.50;0.70;;;20.10;99.90;;;;;;5120077;27;20928;-54
2023/08/26 05:30:45;;;;;;;1.20;0.70;;;20.20;99.90;;;;;;5119655;27;20882;-49
2023/08/26 05:33:12;;;;;;;1.40;0.70;;;20.20;99.90;;;;;;5118922;27;20476;-51
2023/08/26 05:35:39;;;;;;;1.40;1.00;;;20.10;99.90;;;;;;5117404;27;20428;-47
2023/08/26 05:38:06;;;;;;;1.50;0.70;;;20.10;99.90;;;;;;5157136;27;20521;-53
2023/08/26 05:40:35;;;;;;;1.00;0.70;;;20.20;99.90;;;;;;5145274;27;20424;-51
2023/08/26 05:43:02;;;;;;;2.40;0.80;;;20.10;99.90;;;;;;5116649;28;20570;-54
2023/08/26 05:45:31;;;;;;;2.80;0.70;;;20.00;99.90;;;;;;5117852;27;20428;-53
2023/08/26 05:47:58;;;;;;;1.20;0.70;;;20.00;99.90;;;;;;5137124;27;20430;-53
2023/08/26 05:50:25;;;;;;;1.30;0.77;;;20.00;99.90;;;;;;5131743;27;20786;-53
2023/08/26 05:52:52;;;;;;;1.80;0.80;;;20.00;99.90;;;;;;5137860;27;20414;-51
2023/08/26 05:55:19;;;;;;;1.50;0.80;;;20.10;99.90;;;;;;5130835;27;20481;-54
2023/08/26 05:57:48;;;;;;;1.10;0.80;;;20.10;99.90;;;;;;5138099;27;20746;-51
2023/08/26 06:00:16;;;;;;;1.05;0.70;;;20.10;99.90;;;;;;5126413;27;20420;-49
2023/08/26 06:02:43;;;;;;;2.33;0.70;;;20.10;99.90;;;;;;5115764;28;20762;-48
2023/08/26 06:05:10;;;;;;;1.60;0.70;;;20.10;99.90;;;;;;5114324;27;20881;-49
2023/08/26 06:07:37;;;;;;;1.20;0.73;;;20.20;99.90;;;;;;5114844;28;20859;-49
2023/08/26 06:10:05;;;;;;;2.30;0.80;;;20.10;99.90;;;;;;5115259;27;20867;-50
2023/08/26 06:12:31;;;;;;;1.00;0.75;;;20.20;99.90;;;;;;5115186;27;20454;-48
2023/08/26 06:15:00;;;;;;;1.20;0.70;;;20.20;99.90;;;;;;5120768;27;20432;-46
2023/08/26 06:17:28;;;;;;;1.40;0.80;;;20.30;99.90;;;;;;5119898;27;20491;-54
2023/08/26 06:19:55;;;;;;;1.50;0.70;;;20.20;99.90;;;;;;5133079;27;20761;-49
2023/08/26 06:22:21;;;;;;;1.67;0.80;;;20.10;99.90;;;;;;5136993;27;20429;-50
2023/08/26 06:24:48;;;;;;;1.98;0.80;;;20.20;99.90;;;;;;5131487;27;20841;-49
2023/08/26 06:27:15;;;;;;;2.15;0.80;;;20.20;99.90;;;;;;5137787;27;20821;-48
2023/08/26 06:29:45;;;;;;;1.02;0.70;;;20.10;99.90;;;;;;5116925;27;20435;-49
2023/08/26 06:32:13;;;;;;;1.20;0.70;;;20.20;99.90;;;;;;5115565;27;20880;-51
2023/08/26 06:34:40;;;;;;;1.20;0.80;;;20.40;99.90;;;;;;5112678;28;20432;-50
2023/08/26 06:37:07;;;;;;;2.40;0.70;;;20.60;99.90;;;;;;5123625;27;20491;-49
2023/08/26 06:39:34;;;;;;;1.20;0.70;;;20.70;99.90;;;;;;5131850;27;20471;-49
2023/08/26 06:42:01;;;;;;;1.90;0.70;;;20.80;99.90;;;;;;5133494;27;20434;-51
2023/08/26 06:44:28;;;;;;;1.50;0.70;;;21.00;99.90;;;;;;5133519;27;20748;-47
2023/08/26 06:46:55;;;;;;;2.30;0.80;;;21.10;99.90;;;;;;5129956;27;20846;-49
2023/08/26 06:49:24;;;;;;;1.58;0.60;;;21.30;99.90;;;;;;5132980;27;20430;-50
2023/08/26 06:51:51;;;;;;;1.00;0.70;;;21.50;99.90;;;;;;5126417;27;20497;-48
2023/08/26 06:54:18;;;;;;;1.10;0.65;;;21.60;99.90;;;;;;5131999;27;20559;-52
2023/08/26 06:56:45;;;;;;;1.88;0.80;;;21.70;99.90;;;;;;5126803;27;20432;-53
2023/08/26 06:59:12;;;;;;;1.90;0.70;;;21.80;99.90;;;;;;5133051;27;20414;-51
2023/08/26 07:01:39;;;;;;;1.10;0.70;;;21.50;99.90;;;;;;5129289;27;20502;-49
2023/08/26 07:04:07;;;;;;;1.50;0.60;;;21.50;99.90;;;;;;5120566;27;20782;-55
2023/08/26 07:06:36;;;;;;;1.10;0.80;;;21.30;99.90;;;;;;5127155;27;20431;-52
2023/08/26 07:09:05;;;;;;;1.10;0.73;;;21.20;99.90;;;;;;5115375;27;20433;-52
2023/08/26 07:11:32;;;;;;;1.80;0.80;;;21.10;99.90;;;;;;5120044;27;20864;-51
2023/08/26 07:13:59;;;;;;;0.90;0.70;;;21.10;99.90;;;;;;5128156;27;20551;-51
2023/08/26 07:16:27;;;;;;;1.13;0.80;;;21.10;99.90;;;;;;5114880;28;20493;-53
2023/08/26 07:18:54;;;;;;;2.20;0.70;;;21.10;99.90;;;;;;5117917;27;20846;-53
2023/08/26 07:21:21;;;;;;;1.10;0.70;;;21.00;99.90;;;;;;5115264;28;20420;-52
2023/08/26 07:23:49;;;;;;;1.63;0.80;;;21.00;99.90;;;;;;5114980;28;20464;-52
2023/08/26 07:26:16;;;;;;;2.60;0.70;;;21.20;99.90;;;;;;5126550;27;20841;-51
2023/08/26 07:28:44;;;;;;;1.10;0.70;;;21.40;99.90;;;;;;5114414;28;20544;-51
2023/08/26 07:31:11;;;;;;;1.77;0.70;;;21.60;99.90;;;;;;5123521;27;20430;-52
2023/08/26 07:33:38;;;;;;;1.27;0.70;;;21.70;99.90;;;;;;5129543;27;20829;-52
2023/08/26 07:36:09;;;;;;;1.15;0.63;;;21.80;99.90;;;;;;5128304;27;20408;-54
2023/08/26 07:38:37;;;;;;;1.90;0.70;;;22.00;95.40;;;;;;5127881;27;20424;-55
2023/08/26 07:41:05;;;;;;;1.90;0.70;;;22.30;99.90;;;;;;5124614;27;20434;-52
2023/08/26 07:43:33;;;;;;;1.00;0.60;;;22.30;97.90;;;;;;5131313;27;20845;-53
2023/08/26 07:46:00;;;;;;;1.08;0.60;;;22.60;77.00;;;;;;5123474;27;20595;-53
2023/08/26 07:48:27;;;;;;;1.30;0.60;;;22.80;67.20;;;;;;5110964;28;20455;-54
2023/08/26 07:50:55;;;;;;;1.10;0.70;;;22.80;62.80;;;;;;5110679;27;20517;-53
2023/08/26 07:53:21;;;;;;;1.33;0.63;;;22.80;65.70;;;;;;5116398;27;21033;-52
2023/08/26 07:55:48;;;;;;;2.45;0.80;;;22.90;45.90;;;;;;5111759;28;20469;-54
2023/08/26 07:58:17;;;;;;;1.70;0.70;;;23.00;44.50;;;;;;5118550;27;20428;-55
2023/08/26 08:00:44;;;;;;;2.90;0.70;;;23.00;44.10;;;;;;5119921;27;20905;-52
2023/08/26 08:03:11;;;;;;;1.25;0.70;;;23.00;36.40;;;;;;5113945;27;20454;-55
2023/08/26 08:05:38;;;;;;;0.85;0.60;;;23.10;31.00;;;;;;5112012;27;20797;-52
2023/08/26 08:08:05;;;;;;;1.20;0.70;;;22.90;47.00;;;;;;5112975;28;20880;-53
2023/08/26 08:10:32;;;;;;;1.40;0.70;;;22.90;48.10;;;;;;5124165;27;20422;-55
2023/08/26 08:12:59;;;;;;;1.13;0.80;;;22.90;41.10;;;;;;5132052;28;20490;-55
2023/08/26 08:15:27;;;;;;;1.50;0.70;;;22.60;48.10;;;;;;5114030;28;20420;-53
2023/08/26 08:17:55;;;;;;;1.80;0.70;;;22.40;29.50;;;;;;5127001;28;20846;-56
2023/08/26 08:20:22;;;;;;;1.00;0.70;;;22.30;59.50;;;;;;5117439;28;20489;-56
2023/08/26 08:22:50;;;;;;;2.13;0.70;;;22.10;73.90;;;;;;5117970;28;21007;-56
2023/08/26 08:25:17;;;;;;;3.00;0.70;;;22.20;79.60;;;;;;5128684;27;20495;-51
2023/08/26 08:27:44;;;;;;;1.10;0.70;;;22.30;71.90;;;;;;5111897;28;20432;-54
2023/08/26 08:30:12;;;;;;;1.00;0.80;;;22.40;58.90;;;;;;5120901;27;20493;-49
2023/08/26 08:32:40;;;;;;;1.60;0.80;;;22.50;39.60;;;;;;5120734;28;20855;-54
2023/08/26 08:35:08;;;;;;;1.90;0.90;;;22.50;58.20;;;;;;5114728;27;20500;-53
2023/08/26 08:37:36;;;;;;;1.20;0.70;;;22.60;51.80;;;;;;5107332;28;20440;-52
2023/08/26 08:40:05;;;;;;;2.28;0.75;;;22.70;41.80;;;;;;5116194;28;20430;-56
2023/08/26 08:42:34;;;;;;;0.93;0.70;;;22.70;21.60;;;;;;5122925;27;20429;-56
2023/08/26 08:45:03;;;;;;;1.65;0.70;;;22.60;32.00;;;;;;5111858;28;20420;-57
2023/08/26 08:47:31;;;;;;;1.23;0.70;;;22.60;27.80;;;;;;5112907;27;20733;-54
2023/08/26 08:50:00;;;;;;;3.80;0.80;;;22.60;11.80;;;;;;5130000;28;20423;-56
2023/08/26 08:52:28;;;;;;;1.20;0.70;;;22.70;1.50;;;;;;5130786;27;20880;-56
2023/08/26 08:54:55;;;;;;;1.90;0.70;;;22.70;1.00;;;;;;5123323;28;20453;-53
2023/08/26 08:57:24;;;;;;;1.10;0.70;;;22.70;1.00;;;;;;5133967;27;20423;-56
2023/08/26 08:59:53;;;;;;;1.10;0.70;;;22.70;1.00;;;;;;5130829;27;20432;-56
2023/08/26 09:02:21;;;;;;;1.17;0.70;;;22.60;1.00;;;;;;5116813;27;20430;-57
2023/08/26 09:04:49;;;;;;;1.10;0.70;;;22.60;1.00;;;;;;5126242;27;20518;-54
2023/08/26 09:07:20;;;;;;;1.08;0.80;;;22.50;8.60;;;;;;5122093;27;20507;-55
2023/08/26 09:09:47;;;;;;;1.80;0.80;;;22.70;5.60;;;;;;5120352;27;20449;-55
2023/08/26 09:12:14;;;;;;;1.60;0.80;;;22.80;14.10;;;;;;5124519;27;20436;-51
2023/08/26 09:14:41;;;;;;;1.00;0.70;;;23.00;1.00;;;;;;5135119;27;20425;-54
2023/08/26 09:17:18;;;;;;;1.00;0.70;;;23.10;1.00;;;;;;5125195;27;20434;-54
2023/08/26 09:19:54;;;;;;;1.20;0.70;;;23.20;1.00;;;;;;5121393;27;20424;-54
2023/08/26 09:22:25;;;;;;;1.13;0.80;;;23.20;1.00;;;;;;5126413;27;20460;-57
2023/08/26 09:24:55;;;;;;;1.50;0.70;;;23.30;1.00;;;;;;5115079;27;20532;-54
2023/08/26 09:27:22;;;;;;;1.30;0.70;;;23.30;1.00;;;;;;5128225;27;20446;-55
2023/08/26 09:29:49;;;;;;;1.90;0.70;;;23.30;1.00;;;;;;5149928;27;20436;-52
2023/08/26 09:32:30;;;;;;;1.80;0.80;;;23.40;1.00;;;;;;5124685;27;20440;-53
2023/08/26 09:35:09;;;;;;;0.93;0.70;;;23.60;1.00;;;;;;5140084;27;20438;-52
2023/08/26 09:37:37;;;;;;;1.10;0.70;;;23.60;1.00;;;;;;5112585;27;20470;-53
2023/08/26 09:40:05;;;;;;;1.10;0.70;;;23.70;1.00;;;;;;5116976;27;20443;-54
2023/08/26 09:42:32;;;;;;;1.60;0.80;;;23.60;1.00;;;;;;5128931;27;20509;-54
2023/08/26 09:44:59;;;;;;;1.02;0.70;;;23.60;1.00;;;;;;5135806;27;20509;-56
2023/08/26 09:47:29;;;;;;;1.10;0.77;;;23.10;1.00;;;;;;5129281;27;20470;-54
2023/08/26 09:49:56;;;;;;;1.50;0.80;;;22.90;1.00;;;;;;5137499;27;20534;-55
2023/08/26 09:52:24;;;;;;;1.85;1.00;;;22.80;2.60;;;;;;5122965;27;20842;-55
2023/08/26 09:54:54;;;;;;;1.40;0.80;;;22.70;9.80;;;;;;5115707;27;20509;-56
2023/08/26 09:57:21;;;;;;;1.00;0.80;;;22.70;17.60;;;;;;5124437;27;20476;-53
2023/08/26 09:59:49;;;;;;;1.40;0.80;;;22.70;14.90;;;;;;5126040;27;20416;-54
2023/08/26 10:02:21;;;;;;;1.10;0.80;;;22.70;21.40;;;;;;5132503;27;20432;-54
2023/08/26 10:04:53;;;;;;;1.50;0.90;;;22.50;26.00;;;;;;5129269;27;20438;-54
2023/08/26 10:07:21;;;;;;;1.40;1.00;;;22.50;33.60;;;;;;5125028;27;20921;-55
2023/08/26 10:09:55;;;;;;;1.30;0.90;;;22.30;42.80;;;;;;5123904;27;20430;-52
2023/08/26 10:12:27;;;;;;;1.17;0.80;;;22.40;38.80;;;;;;5134279;27;20515;-55
2023/08/26 10:15:00;;;;;;;3.15;0.80;;;22.60;40.50;;;;;;5135584;27;20438;-55
2023/08/26 10:17:29;;;;;;;2.40;0.90;;;22.60;24.40;;;;;;5136213;27;20819;-53
2023/08/26 10:19:56;;;;;;;1.70;0.80;;;22.60;16.30;;;;;;5131469;27;20767;-53
2023/08/26 10:22:24;;;;;;;1.50;0.80;;;22.60;28.50;;;;;;5130921;27;20431;-55
2023/08/26 10:24:53;;;;;;;1.80;0.80;;;22.70;23.40;;;;;;5118094;27;20531;-55
2023/08/26 10:27:20;;;;;;;1.05;0.80;;;22.70;23.70;;;;;;5132401;27;20510;-55
2023/08/26 10:29:49;;;;;;;1.70;0.80;;;22.80;26.90;;;;;;5116547;28;20446;-52
2023/08/26 10:32:17;;;;;;;1.00;0.80;;;22.80;2.00;;;;;;5116397;27;20713;-50
2023/08/26 10:34:53;;;;;;;1.60;0.80;;;22.90;1.00;;;;;;5135035;27;20457;-54
2023/08/26 10:37:21;;;;;;;2.10;0.80;;;22.90;1.00;;;;;;5111437;27;20709;-53
2023/08/26 10:39:48;;;;;;;1.33;0.80;;;22.70;1.00;;;;;;5123521;27;20929;-53
2023/08/26 10:42:18;;;;;;;1.10;0.77;;;22.60;1.00;;;;;;5120139;27;20787;-54
2023/08/26 10:44:47;;;;;;;1.00;0.70;;;22.40;16.90;;;;;;5135429;27;20426;-54
2023/08/26 10:47:34;;;;;;;1.08;0.80;;;22.40;5.50;;;;;;5108258;27;20459;-54
2023/08/26 10:50:15;;;;;;;1.40;0.75;;;22.40;9.50;;;;;;5120082;27;20432;-53
2023/08/26 10:52:43;;;;;;;1.00;0.80;;;22.30;10.20;;;;;;5111779;27;20630;-55
2023/08/26 10:55:18;;;;;;;1.52;0.80;;;22.10;23.20;;;;;;5117920;27;20509;-53
2023/08/26 10:58:03;;;;;;;1.40;0.80;;;22.00;29.60;;;;;;5124576;27;20458;-55
2023/08/26 11:00:30;;;;;;;1.47;0.80;;;21.90;39.50;;;;;;5108301;28;20412;-55
2023/08/26 11:02:57;;;;;;;0.90;0.70;;;21.90;45.80;;;;;;5125306;27;20472;-55
2023/08/26 11:05:25;;;;;;;2.67;0.90;;;22.10;19.40;;;;;;5115658;27;20432;-55
2023/08/26 11:07:52;;;;;;;1.50;0.80;;;22.20;21.50;;;;;;5116044;27;20504;-53
2023/08/26 11:10:28;;;;;;;1.00;0.70;;;22.50;4.00;;;;;;5113986;28;20518;-52
2023/08/26 11:12:55;;;;;;;1.80;0.80;;;22.80;1.00;;;;;;5124309;27;20473;-53
2023/08/26 11:15:24;;;;;;;1.50;0.90;;;22.90;1.00;;;;;;5132716;27;20414;-54
2023/08/26 11:17:51;;;;;;;1.30;0.80;;;23.00;1.00;;;;;;5121181;27;20431;-51
2023/08/26 11:20:19;;;;;;;2.20;0.80;;;22.90;1.00;;;;;;5134929;27;20430;-54
2023/08/26 11:22:47;;;;;;;2.30;0.80;;;22.90;1.00;;;;;;5120619;27;20439;-53
2023/08/26 11:25:14;;;;;;;1.30;0.80;;;23.00;1.00;;;;;;5115491;27;20427;-54
2023/08/26 11:27:42;;;;;;;1.00;0.80;;;23.00;1.00;;;;;;5133804;27;20442;-49
2023/08/26 11:30:10;;;;;;;2.70;0.85;;;23.00;1.00;;;;;;5131429;27;20493;-52
2023/08/26 11:32:39;;;;;;;1.10;0.80;;;22.90;1.00;;;;;;5121890;27;20764;-55
2023/08/26 11:35:08;;;;;;;1.13;0.80;;;22.80;1.00;;;;;;5115574;27;20852;-52
2023/08/26 11:37:36;;;;;;;1.10;0.70;;;22.70;1.00;;;;;;5124624;27;20487;-53
2023/08/26 11:40:06;;;;;;;1.20;0.90;;;22.60;1.00;;;;;;5126392;27;20426;-54
2023/08/26 11:42:33;;;;;;;3.17;0.90;;;22.60;1.00;;;;;;5117373;27;20420;-49
2023/08/26 11:45:00;;;;;;;2.20;0.90;;;22.60;4.30;;;;;;5112296;28;20412;-54
2023/08/26 11:47:27;;;;;;;1.40;0.90;;;22.50;1.00;;;;;;5111521;27;20490;-54
2023/08/26 11:49:57;;;;;;;1.10;0.70;;;22.40;1.00;;;;;;5111108;28;20442;-53
2023/08/26 11:52:31;;;;;;;2.00;0.75;;;22.40;15.60;;;;;;5121038;27;20461;-55
2023/08/26 11:54:58;;;;;;;1.50;0.88;;;22.40;10.20;;;;;;5120711;27;20933;-55
2023/08/26 11:57:25;;;;;;;2.40;1.20;;;22.20;11.10;;;;;;5113780;28;20496;-56
2023/08/26 11:59:52;;;;;;;1.60;0.90;;;22.10;38.90;;;;;;5123914;27;20434;-55
2023/08/26 12:02:22;;;;;;;1.48;0.90;;;21.80;60.10;;;;;;5126145;27;20433;-54
2023/08/26 12:04:58;;;;;;;2.17;0.80;;;21.70;81.40;;;;;;5132351;27;20712;-55
2023/08/26 12:07:25;;;;;;;2.85;0.88;;;21.70;93.70;;;;;;5122395;27;20468;-55
2023/08/26 12:09:52;;;;;;;2.20;0.90;;;21.80;99.90;;;;;;5128987;27;20428;-49
2023/08/26 12:12:19;;;;;;;1.80;0.90;;;21.70;85.70;;;;;;5134390;27;20422;-54
2023/08/26 12:14:47;;;;;;;1.47;0.80;;;21.70;99.90;;;;;;5134516;28;20458;-53
2023/08/26 12:17:15;;;;;;;2.38;1.00;;;21.70;99.90;;;;;;5131391;28;20447;-54
2023/08/26 12:19:43;;;;;;;1.90;0.90;;;21.70;99.90;;;;;;5136115;27;20434;-55
2023/08/26 12:22:11;;;;;;;3.30;1.00;;;21.70;95.60;;;;;;5116384;28;20489;-50
2023/08/26 12:24:39;;;;;;;1.47;0.90;;;21.70;99.90;;;;;;5131492;28;20418;-50
2023/08/26 12:27:09;;;;;;;1.83;0.90;;;21.60;99.90;;;;;;5128967;28;20419;-50
2023/08/26 12:29:36;;;;;;;1.65;1.00;;;21.40;99.90;;;;;;5129605;28;20436;-50
2023/08/26 12:32:04;;;;;;;1.60;0.90;;;21.40;99.90;;;;;;5132052;27;20510;-52
2023/08/26 12:34:31;;;;;;;1.50;0.90;;;21.40;99.90;;;;;;5134175;27;20541;-49
2023/08/26 12:36:58;;;;;;;3.30;1.00;;;21.40;99.90;;;;;;5129328;27;20448;-51
2023/08/26 12:39:26;;;;;;;1.60;0.90;;;21.40;99.90;;;;;;5130754;27;20428;-49
2023/08/26 12:41:54;;;;;;;1.47;1.00;;;21.30;99.90;;;;;;5133885;27;20444;-52
2023/08/26 12:44:23;;;;;;;1.23;0.90;;;21.30;99.90;;;;;;5129044;27;20423;-50
2023/08/26 12:46:51;;;;;;;2.80;0.88;;;21.30;99.90;;;;;;5117367;28;20423;-53
2023/08/26 12:49:17;;;;;;;1.80;0.90;;;21.30;99.90;;;;;;5119581;27;20432;-54
2023/08/26 12:51:44;;;;;;;2.10;1.00;;;20.80;99.90;;;;;;5132739;27;20521;-52